Time;durP1;ratioP1;P1;durP2;ratioP2;P2;SDS_P1;SDS_P2;PMS_P1;PMS_P2;Temp;Humidity;BMP_temperature;BMP_pressure;BME280_temperature;BME280_humidity;BME280_pressure;Samples;Min_cycle;Max_cycle;Signal;HPM_P1;HPM_P2
2023/06/17 00:00:52;;;;;;;7.70;4.37;;;;;;;16.93;58.19;101492.53;4993224;28;20038;-83
2023/06/17 00:03:23;;;;;;;6.65;4.22;;;;;;;16.88;58.91;101495.13;4994873;28;20517;-83
2023/06/17 00:05:48;;;;;;;7.75;3.70;;;;;;;16.83;58.49;101486.78;4993246;28;20037;-83
2023/06/17 00:08:14;;;;;;;9.03;4.90;;;;;;;16.77;58.62;101490.47;4993272;28;20030;-83
2023/06/17 00:10:39;;;;;;;8.77;4.53;;;;;;;16.76;59.77;101497.88;4994268;28;20046;-83
2023/06/17 00:13:07;;;;;;;8.05;4.13;;;;;;;16.70;60.47;101487.88;4993143;28;20085;-83
2023/06/17 00:15:33;;;;;;;8.63;4.97;;;;;;;16.64;60.16;101481.47;4993458;28;20029;-83
2023/06/17 00:18:00;;;;;;;8.77;4.53;;;;;;;16.60;60.85;101490.41;4993561;28;20034;-83
2023/06/17 00:20:26;;;;;;;6.63;4.50;;;;;;;16.52;61.04;101483.38;4992805;28;20027;-83
2023/06/17 00:22:52;;;;;;;6.57;4.55;;;;;;;16.42;62.59;101477.69;4977415;28;20057;-83
2023/06/17 00:25:18;;;;;;;10.60;4.50;;;;;;;16.37;62.28;101475.66;4976661;28;20030;-83
2023/06/17 00:27:46;;;;;;;7.75;4.50;;;;;;;16.33;63.39;101465.41;4993061;28;20023;-83
2023/06/17 00:30:15;;;;;;;7.72;4.90;;;;;;;16.25;61.43;101472.06;4992907;28;20030;-83
2023/06/17 00:32:40;;;;;;;6.45;4.82;;;;;;;16.24;61.77;101471.25;4992885;28;20030;-83
2023/06/17 00:35:06;;;;;;;7.93;4.43;;;;;;;16.17;61.22;101469.72;4977715;28;20026;-83
2023/06/17 00:37:32;;;;;;;6.75;4.90;;;;;;;16.16;60.69;101471.59;4994012;28;20498;-83
2023/06/17 00:39:57;;;;;;;5.93;4.67;;;;;;;16.12;60.93;101473.13;4993017;28;20455;-83
2023/06/17 00:42:26;;;;;;;8.20;4.80;;;;;;;16.10;60.58;101472.56;4992889;28;20045;-84
2023/06/17 00:44:51;;;;;;;9.57;4.80;;;;;;;16.06;62.53;101474.09;4992571;28;20034;-83
2023/06/17 00:47:17;;;;;;;11.33;4.90;;;;;;;16.00;62.63;101470.38;4996560;28;20566;-83
2023/06/17 00:49:46;;;;;;;12.13;5.00;;;;;;;15.95;63.80;101475.75;4998771;28;20374;-83
2023/06/17 00:52:13;;;;;;;5.67;4.13;;;;;;;15.93;64.26;101477.91;4997129;28;20277;-83
2023/06/17 00:54:42;;;;;;;9.48;4.68;;;;;;;15.89;64.46;101477.53;4981858;28;20064;-83
2023/06/17 00:57:09;;;;;;;7.13;4.70;;;;;;;15.85;63.64;101480.97;4997831;28;20077;-84
2023/06/17 00:59:37;;;;;;;10.10;5.35;;;;;;;15.86;65.15;101478.00;4980658;28;20126;-82
2023/06/17 01:02:07;;;;;;;7.55;4.70;;;;;;;15.78;65.72;101478.31;4996714;28;20038;-83
2023/06/17 01:04:33;;;;;;;12.23;4.90;;;;;;;15.73;67.10;101470.78;4996667;28;20038;-83
2023/06/17 01:07:12;;;;;;;8.43;5.00;;;;;;;15.66;66.32;101477.44;4996635;28;20026;-83
2023/06/17 01:09:47;;;;;;;6.55;4.90;;;;;;;15.61;69.13;101481.72;4996831;28;20464;-83
2023/06/17 01:12:15;;;;;;;8.23;5.03;;;;;;;15.55;68.75;101477.19;4996317;28;20390;-83
2023/06/17 01:14:50;;;;;;;8.48;5.07;;;;;;;15.48;67.81;101470.16;4996464;28;20034;-83
2023/06/17 01:17:20;;;;;;;9.77;5.60;;;;;;;15.40;68.62;101466.69;4996852;28;20038;-83
2023/06/17 01:19:48;;;;;;;12.00;5.47;;;;;;;15.36;67.38;101467.38;4997190;28;20030;-83
2023/06/17 01:22:15;;;;;;;8.68;4.72;;;;;;;15.32;68.73;101468.91;4997772;28;20030;-83
2023/06/17 01:24:41;;;;;;;14.48;4.90;;;;;;;15.30;70.28;101469.13;4997624;28;20035;-83
2023/06/17 01:27:08;;;;;;;9.30;4.85;;;;;;;15.27;69.58;101464.97;4995792;28;20034;-83
2023/06/17 01:29:37;;;;;;;9.30;4.80;;;;;;;15.25;68.02;101467.09;4980205;28;20030;-83
2023/06/17 01:32:05;;;;;;;9.45;5.13;;;;;;;15.21;67.54;101467.78;4980694;28;20037;-83
2023/06/17 01:34:43;;;;;;;8.93;4.45;;;;;;;15.16;69.94;101462.19;4996074;28;20034;-83
2023/06/17 01:37:13;;;;;;;6.95;4.90;;;;;;;15.13;70.83;101463.47;4995695;28;20034;-83
2023/06/17 01:39:41;;;;;;;10.70;5.57;;;;;;;15.08;69.22;101460.59;4995759;28;20030;-83
2023/06/17 01:42:20;;;;;;;9.40;5.70;;;;;;;15.05;70.33;101458.34;4995796;28;20030;-82
2023/06/17 01:44:47;;;;;;;8.82;4.85;;;;;;;15.03;71.96;101461.31;4997029;28;20030;-83
2023/06/17 01:47:13;;;;;;;7.63;4.97;;;;;;;15.00;70.52;101463.63;4996849;28;20039;-89
2023/06/17 01:49:39;;;;;;;7.50;5.07;;;;;;;14.96;69.94;101463.28;4996693;28;20038;-88
2023/06/17 01:52:06;;;;;;;10.25;5.05;;;;;;;14.93;69.04;101454.72;4997048;28;20605;-88
2023/06/17 01:54:32;;;;;;;8.65;4.65;;;;;;;14.93;68.66;101474.66;4997056;28;20033;-89
2023/06/17 01:56:57;;;;;;;8.87;4.67;;;;;;;14.90;68.69;101461.47;4996298;28;20026;-89
2023/06/17 01:59:23;;;;;;;7.27;5.00;;;;;;;14.90;69.26;101461.47;4995943;28;20479;-89
2023/06/17 02:01:48;;;;;;;8.23;4.72;;;;;;;14.89;70.38;101457.06;4979243;28;20038;-89
2023/06/17 02:04:13;;;;;;;9.43;5.60;;;;;;;14.83;69.98;101464.28;4963664;28;20117;-89
2023/06/17 02:06:39;;;;;;;10.20;4.90;;;;;;;14.79;67.97;101459.50;4962924;28;20402;-88
2023/06/17 02:09:05;;;;;;;8.37;5.30;;;;;;;14.75;67.37;101445.47;4995641;28;20027;-89
2023/06/17 02:11:31;;;;;;;10.75;5.13;;;;;;;14.71;67.93;101449.72;4995876;28;20455;-88
2023/06/17 02:13:56;;;;;;;8.43;5.40;;;;;;;14.69;70.19;101455.41;4995443;28;20045;-89
2023/06/17 02:16:22;;;;;;;7.93;5.10;;;;;;;14.61;71.67;101446.66;4995993;28;20037;-88
2023/06/17 02:18:48;;;;;;;9.00;5.40;;;;;;;14.63;72.35;101455.47;4995410;28;20117;-89
2023/06/17 02:21:13;;;;;;;6.93;5.05;;;;;;;14.57;72.74;101454.44;4996461;28;20470;-89
2023/06/17 02:23:39;;;;;;;7.27;4.90;;;;;;;14.47;72.37;101448.72;4978802;28;20055;-88
2023/06/17 02:26:04;;;;;;;11.83;5.33;;;;;;;14.47;70.71;101441.34;4995972;28;20471;-89
2023/06/17 02:28:30;;;;;;;10.97;5.80;;;;;;;14.43;70.29;101447.50;4994820;28;20042;-89
2023/06/17 02:30:55;;;;;;;8.68;6.03;;;;;;;14.41;69.41;101447.72;4995233;28;20026;-89
2023/06/17 02:33:22;;;;;;;9.87;5.60;;;;;;;14.35;70.44;101445.88;4995221;28;20034;-89
2023/06/17 02:35:48;;;;;;;15.43;5.80;;;;;;;14.30;70.83;101443.81;4979091;28;20039;-89
2023/06/17 02:38:14;;;;;;;12.43;5.83;;;;;;;14.26;70.35;101447.22;4979359;28;20036;-89
2023/06/17 02:40:39;;;;;;;8.32;5.80;;;;;;;14.21;70.47;101440.53;4995187;28;20046;-89
2023/06/17 02:43:05;;;;;;;12.23;5.83;;;;;;;14.17;71.19;101433.91;4962681;28;20073;-90
2023/06/17 02:45:30;;;;;;;11.30;5.63;;;;;;;14.16;71.73;101432.22;4996021;28;20054;-89
2023/06/17 02:47:56;;;;;;;10.87;5.40;;;;;;;14.11;73.19;101434.78;4978875;28;20293;-89
2023/06/17 02:50:23;;;;;;;13.67;5.30;;;;;;;14.09;75.04;101442.34;4979079;28;20069;-89
2023/06/17 02:52:55;;;;;;;11.70;5.20;;;;;;;14.09;75.70;101442.34;4994604;28;20027;-89
2023/06/17 02:55:25;;;;;;;8.25;5.28;;;;;;;14.07;73.35;101440.91;4994812;28;20108;-89
2023/06/17 02:57:51;;;;;;;10.07;5.32;;;;;;;14.00;73.00;101421.88;4994521;28;20521;-89
2023/06/17 03:00:16;;;;;;;8.73;5.23;;;;;;;13.98;73.68;101429.44;4978627;28;20129;-89
2023/06/17 03:02:42;;;;;;;13.57;5.43;;;;;;;13.95;76.46;101427.16;4961975;28;20511;-89
2023/06/17 03:05:10;;;;;;;15.57;6.20;;;;;;;13.96;77.61;101423.38;4977941;28;20042;-89
2023/06/17 03:07:36;;;;;;;6.70;5.72;;;;;;;13.92;77.82;101441.25;4995236;28;20038;-89
2023/06/17 03:10:05;;;;;;;12.43;5.97;;;;;;;13.86;77.66;101427.47;4978039;28;20490;-89
2023/06/17 03:12:30;;;;;;;13.55;6.00;;;;;;;13.87;77.66;101431.00;4994307;28;20048;-89
2023/06/17 03:14:57;;;;;;;11.53;5.33;;;;;;;13.84;77.34;101424.09;4994278;28;20488;-89
2023/06/17 03:17:24;;;;;;;9.77;5.50;;;;;;;13.84;74.65;101426.84;4978078;28;20369;-89
2023/06/17 03:19:50;;;;;;;9.73;5.80;;;;;;;13.83;74.96;101429.78;4994108;28;20041;-89
2023/06/17 03:22:15;;;;;;;14.18;6.05;;;;;;;13.81;75.30;101427.28;4994606;28;20034;-89
2023/06/17 03:24:41;;;;;;;8.33;5.80;;;;;;;13.80;76.58;101430.22;4994441;28;20054;-89
2023/06/17 03:27:07;;;;;;;8.20;6.10;;;;;;;13.81;77.05;101421.81;4994910;28;20058;-89
2023/06/17 03:29:35;;;;;;;8.53;5.90;;;;;;;13.80;77.64;101422.91;4977798;28;20470;-89
2023/06/17 03:32:00;;;;;;;11.27;6.28;;;;;;;13.79;76.12;101431.28;4977813;28;20034;-90
2023/06/17 03:34:25;;;;;;;8.60;5.97;;;;;;;13.77;76.99;101423.31;4994003;28;20030;-89
2023/06/17 03:36:51;;;;;;;17.40;6.03;;;;;;;13.79;78.72;101421.22;4977368;28;20034;-90
2023/06/17 03:39:16;;;;;;;15.82;6.20;;;;;;;13.76;77.68;101426.28;4995086;28;20038;-89
2023/06/17 03:41:42;;;;;;;7.43;5.33;;;;;;;13.81;77.18;101423.72;4995019;28;20053;-89
2023/06/17 03:44:07;;;;;;;8.40;5.50;;;;;;;13.80;77.96;101422.06;4993744;28;20034;-89
2023/06/17 03:46:33;;;;;;;10.67;5.87;;;;;;;13.79;79.77;101423.09;4993623;28;20029;-89
2023/06/17 03:48:58;;;;;;;11.18;5.55;;;;;;;13.82;78.86;101419.94;4961536;28;20039;-89
2023/06/17 03:51:24;;;;;;;7.23;5.50;;;;;;;13.82;79.51;101425.41;4977181;28;20044;-89
2023/06/17 03:53:49;;;;;;;15.97;6.10;;;;;;;13.78;79.80;101418.72;4977120;28;20112;-89
2023/06/17 03:56:15;;;;;;;13.47;6.27;;;;;;;13.83;79.79;101424.31;4993636;28;20042;-89
2023/06/17 03:58:40;;;;;;;15.27;6.63;;;;;;;13.81;76.55;101407.38;4977662;28;20049;-88
2023/06/17 04:01:12;;;;;;;11.53;6.23;;;;;;;13.88;77.85;101413.59;4993345;28;20157;-89
2023/06/17 04:03:38;;;;;;;12.77;6.60;;;;;;;13.90;78.34;101413.38;4978373;28;20038;-89
2023/06/17 04:06:03;;;;;;;17.87;6.30;;;;;;;13.94;79.20;101409.97;4993421;28;20030;-89
2023/06/17 04:08:32;;;;;;;10.55;6.65;;;;;;;13.99;79.45;101412.84;4976955;28;20042;-89
2023/06/17 04:10:58;;;;;;;18.07;7.53;;;;;;;14.02;78.10;101414.28;4993755;28;20060;-89
2023/06/17 04:13:24;;;;;;;8.80;6.95;;;;;;;14.06;76.46;101411.97;4993152;28;20065;-89
2023/06/17 04:15:49;;;;;;;13.70;6.50;;;;;;;14.09;78.04;101417.81;4976842;28;20065;-89
2023/06/17 04:18:15;;;;;;;10.25;7.20;;;;;;;14.11;79.89;101412.13;4977091;28;20030;-89
2023/06/17 04:20:40;;;;;;;10.60;6.83;;;;;;;14.17;81.03;101419.41;4976341;28;20093;-88
2023/06/17 04:23:05;;;;;;;14.07;6.87;;;;;;;14.20;82.09;101427.97;4976990;28;20047;-89
2023/06/17 04:25:32;;;;;;;14.70;6.97;;;;;;;14.25;82.39;101423.75;4977230;28;20027;-88
2023/06/17 04:27:58;;;;;;;17.85;7.05;;;;;;;14.26;81.87;101426.25;4977081;28;20035;-88
2023/06/17 04:30:24;;;;;;;15.40;7.28;;;;;;;14.30;81.64;101426.63;4993127;28;20030;-88
2023/06/17 04:32:50;;;;;;;12.82;6.93;;;;;;;14.32;81.91;101425.34;4977027;28;20538;-88
2023/06/17 04:35:18;;;;;;;12.10;6.90;;;;;;;14.37;79.97;101422.75;4992920;28;20038;-88
2023/06/17 04:37:44;;;;;;;13.23;7.50;;;;;;;14.41;81.63;101417.69;4993843;28;20034;-88
2023/06/17 04:40:12;;;;;;;13.07;7.47;;;;;;;14.49;82.37;101422.00;4994302;28;20387;-89
2023/06/17 04:42:40;;;;;;;14.68;7.95;;;;;;;14.58;79.89;101426.09;4977910;28;20038;-88
2023/06/17 04:45:08;;;;;;;12.75;7.40;;;;;;;14.61;81.55;101425.66;4993276;28;20038;-88
2023/06/17 04:47:33;;;;;;;10.75;7.78;;;;;;;14.68;83.20;101431.06;4994224;28;20076;-89
2023/06/17 04:49:59;;;;;;;14.83;7.97;;;;;;;14.72;81.96;101427.63;4994540;28;20428;-89
2023/06/17 04:52:24;;;;;;;15.93;7.93;;;;;;;14.77;81.75;101434.31;4992825;28;20074;-89
2023/06/17 04:54:51;;;;;;;14.65;8.50;;;;;;;14.82;82.33;101429.84;4994662;28;20038;-89
2023/06/17 04:57:17;;;;;;;15.38;8.57;;;;;;;14.89;81.20;101430.56;4992988;28;20121;-89
2023/06/17 04:59:43;;;;;;;12.30;7.90;;;;;;;14.95;82.72;101431.53;4994225;28;20042;-89
2023/06/17 05:02:08;;;;;;;14.32;9.07;;;;;;;14.99;80.00;101437.41;4993870;28;20030;-89
2023/06/17 05:04:33;;;;;;;13.00;8.57;;;;;;;15.02;77.38;101434.19;4977193;28;20030;-89
2023/06/17 05:06:59;;;;;;;10.53;8.30;;;;;;;15.09;77.99;101434.94;4976358;28;20431;-89
2023/06/17 05:09:25;;;;;;;12.57;8.53;;;;;;;15.17;79.71;101436.53;4994341;28;20037;-89
2023/06/17 05:11:50;;;;;;;15.63;9.60;;;;;;;15.25;77.91;101449.84;4961269;28;20049;-88
2023/06/17 05:14:16;;;;;;;12.70;9.67;;;;;;;15.32;77.86;101449.75;4976562;28;20103;-88
2023/06/17 05:16:41;;;;;;;12.80;10.05;;;;;;;15.40;78.71;101446.72;4992494;28;20031;-88
2023/06/17 05:19:06;;;;;;;13.93;10.67;;;;;;;15.45;77.42;101449.56;4977118;28;20435;-88
2023/06/17 05:21:32;;;;;;;16.83;10.67;;;;;;;15.55;78.75;101449.84;4976373;28;20035;-88
2023/06/17 05:23:57;;;;;;;17.57;10.33;;;;;;;15.64;77.80;101449.50;4976152;28;20058;-88
2023/06/17 05:26:23;;;;;;;13.30;10.47;;;;;;;15.71;77.19;101448.31;4976124;28;20034;-89
2023/06/17 05:28:48;;;;;;;17.17;11.97;;;;;;;15.79;76.27;101447.16;4976443;28;20069;-88
2023/06/17 05:31:13;;;;;;;18.77;12.32;;;;;;;15.87;76.36;101452.31;4992613;28;20106;-89
2023/06/17 05:33:39;;;;;;;16.10;12.50;;;;;;;15.99;75.71;101444.13;4995024;28;20039;-88
2023/06/17 05:36:05;;;;;;;17.10;12.93;;;;;;;16.02;76.19;101451.00;4980235;28;20034;-88
2023/06/17 05:38:30;;;;;;;16.73;13.00;;;;;;;16.06;76.16;101450.31;4980049;28;20108;-88
2023/06/17 05:40:56;;;;;;;19.77;13.33;;;;;;;16.16;76.42;101457.91;4964652;28;20046;-89
2023/06/17 05:43:25;;;;;;;20.03;13.00;;;;;;;16.19;78.05;101435.53;4996179;28;20406;-90
2023/06/17 05:45:50;;;;;;;16.83;12.30;;;;;;;16.29;75.22;101443.16;4997482;28;20296;-92
2023/06/17 05:48:16;;;;;;;17.33;12.87;;;;;;;16.36;74.99;101443.00;4996225;28;20398;-92
2023/06/17 05:50:41;;;;;;;14.60;12.03;;;;;;;16.43;74.81;101444.56;4963793;28;20278;-92
2023/06/17 05:53:06;;;;;;;17.40;11.70;;;;;;;16.46;73.68;101440.50;4995651;28;20398;-92
2023/06/17 05:55:32;;;;;;;16.57;12.50;;;;;;;16.55;73.70;101446.44;4963960;28;20030;-93
2023/06/17 05:57:57;;;;;;;14.80;11.70;;;;;;;16.61;73.66;101442.75;4997524;28;20117;-92
2023/06/17 06:00:23;;;;;;;15.05;12.20;;;;;;;16.67;73.26;101444.53;4979432;28;20042;-91
2023/06/17 06:02:49;;;;;;;17.00;12.50;;;;;;;16.74;73.11;101441.63;4979467;28;20034;-91
2023/06/17 06:05:14;;;;;;;15.60;11.88;;;;;;;16.82;73.10;101441.28;4963311;28;20034;-89
2023/06/17 06:07:41;;;;;;;14.80;11.77;;;;;;;16.86;72.55;101436.13;4995519;28;20026;-88
2023/06/17 06:10:07;;;;;;;13.13;11.70;;;;;;;16.93;72.61;101431.38;4997289;28;20063;-88
2023/06/17 06:12:33;;;;;;;15.95;11.38;;;;;;;17.04;71.73;101446.09;4979287;28;20038;-88
2023/06/17 06:14:59;;;;;;;15.40;12.20;;;;;;;17.10;72.13;101442.41;4996321;28;20031;-90
2023/06/17 06:17:24;;;;;;;15.48;12.50;;;;;;;17.23;72.43;101446.75;4980101;28;20053;-89
2023/06/17 06:19:52;;;;;;;17.57;12.07;;;;;;;17.25;71.41;101431.72;4996876;28;20117;-90
2023/06/17 06:22:18;;;;;;;19.20;12.10;;;;;;;17.32;72.15;101434.31;4995366;28;20093;-88
2023/06/17 06:24:44;;;;;;;16.35;11.80;;;;;;;17.39;71.09;101435.00;4994791;28;20497;-90
2023/06/17 06:27:09;;;;;;;17.53;12.50;;;;;;;17.50;71.05;101439.56;4996944;28;20038;-90
2023/06/17 06:29:35;;;;;;;14.80;12.13;;;;;;;17.54;69.71;101438.00;4994823;28;20499;-89
2023/06/17 06:32:01;;;;;;;20.35;12.23;;;;;;;17.64;68.49;101433.75;4996142;28;20034;-88
2023/06/17 06:34:26;;;;;;;17.00;12.07;;;;;;;17.66;68.32;101426.94;4994815;28;20035;-89
2023/06/17 06:36:53;;;;;;;16.63;11.90;;;;;;;17.71;68.12;101432.50;4996266;28;20045;-90
2023/06/17 06:39:18;;;;;;;19.00;12.07;;;;;;;17.76;67.65;101426.28;4978449;28;20322;-89
2023/06/17 06:41:44;;;;;;;17.23;11.98;;;;;;;17.84;67.15;101436.84;4995533;28;20112;-88
2023/06/17 06:44:09;;;;;;;17.80;11.30;;;;;;;17.96;65.87;101439.53;4978245;28;20133;-91
2023/06/17 06:46:35;;;;;;;16.27;10.80;;;;;;;18.00;64.54;101435.22;4979361;28;20026;-90
2023/06/17 06:49:00;;;;;;;18.47;11.03;;;;;;;18.08;61.48;101433.13;4994779;28;20061;-90
2023/06/17 06:51:26;;;;;;;14.63;10.80;;;;;;;18.21;63.13;101443.75;4978572;28;20034;-90
2023/06/17 06:53:51;;;;;;;13.60;10.43;;;;;;;18.26;61.44;101445.75;4994531;28;20036;-89
2023/06/17 06:56:17;;;;;;;14.47;10.60;;;;;;;18.34;60.55;101437.91;4995662;28;20121;-89
2023/06/17 06:58:43;;;;;;;16.52;10.05;;;;;;;18.44;57.94;101441.88;4994838;28;20033;-91
2023/06/17 07:01:08;;;;;;;12.17;8.63;;;;;;;18.49;56.24;101445.50;4978426;28;20391;-91
2023/06/17 07:03:34;;;;;;;12.77;10.03;;;;;;;18.51;57.08;101432.38;4995011;28;20030;-88
2023/06/17 07:05:59;;;;;;;15.02;10.23;;;;;;;18.63;58.26;101437.75;4994157;28;20105;-90
2023/06/17 07:08:25;;;;;;;11.57;9.37;;;;;;;18.68;56.04;101436.97;4994448;28;20473;-89
2023/06/17 07:10:50;;;;;;;14.37;8.67;;;;;;;18.73;54.55;101437.88;4994154;28;20061;-90
2023/06/17 07:13:17;;;;;;;13.70;9.40;;;;;;;18.78;54.58;101434.34;4994290;28;20045;-90
2023/06/17 07:15:44;;;;;;;13.38;9.30;;;;;;;18.88;54.98;101439.16;4978287;28;20113;-90
2023/06/17 07:18:12;;;;;;;14.70;9.10;;;;;;;18.87;54.04;101438.34;4995035;28;20056;-90
2023/06/17 07:20:38;;;;;;;15.75;10.13;;;;;;;18.96;53.46;101433.22;4994224;28;20051;-89
2023/06/17 07:23:03;;;;;;;14.60;9.33;;;;;;;19.08;53.46;101433.06;4995017;28;20355;-90
2023/06/17 07:25:29;;;;;;;12.47;9.40;;;;;;;19.17;54.21;101437.00;4962017;28;20102;-90
2023/06/17 07:28:01;;;;;;;16.70;10.10;;;;;;;19.21;53.08;101435.41;4994584;28;20038;-90
2023/06/17 07:30:27;;;;;;;11.60;8.32;;;;;;;19.24;52.03;101425.81;4979288;28;20129;-91
2023/06/17 07:32:53;;;;;;;10.95;8.38;;;;;;;19.36;51.43;101431.97;4978136;28;20040;-86
2023/06/17 07:35:19;;;;;;;14.83;9.13;;;;;;;19.47;50.66;101446.66;4978203;28;20434;-85
2023/06/17 07:37:44;;;;;;;11.93;8.52;;;;;;;19.56;51.55;101438.75;4994197;28;20430;-88
2023/06/17 07:40:11;;;;;;;21.43;9.47;;;;;;;19.59;51.40;101433.56;4993664;28;20038;-89
2023/06/17 07:42:42;;;;;;;12.07;8.05;;;;;;;19.67;49.42;101435.00;4995139;28;20033;-88
2023/06/17 07:45:11;;;;;;;10.73;7.30;;;;;;;19.76;49.56;101446.38;4995249;28;20375;-88
2023/06/17 07:47:37;;;;;;;13.88;8.13;;;;;;;19.84;48.67;101439.56;4995266;28;20026;-88
2023/06/17 07:50:08;;;;;;;11.70;7.90;;;;;;;19.88;48.77;101436.03;4977622;28;20034;-91
2023/06/17 07:52:36;;;;;;;10.93;7.75;;;;;;;19.96;48.53;101437.44;4993875;28;20033;-93
2023/06/17 07:55:03;;;;;;;11.15;6.63;;;;;;;20.07;46.99;101430.13;4993095;28;20057;-93
2023/06/17 07:57:28;;;;;;;8.35;6.03;;;;;;;20.14;46.51;101428.78;4993323;28;20078;-91
2023/06/17 07:59:54;;;;;;;8.77;5.97;;;;;;;20.22;45.27;101430.19;4994517;28;20578;-89
2023/06/17 08:02:19;;;;;;;11.10;5.57;;;;;;;20.28;44.72;101428.31;4977604;28;20506;-89
2023/06/17 08:04:45;;;;;;;9.27;5.45;;;;;;;20.32;44.68;101427.50;4993926;28;20387;-94
2023/06/17 08:07:13;;;;;;;7.03;5.93;;;;;;;20.36;44.84;101425.06;4977382;28;20474;-93
2023/06/17 08:09:38;;;;;;;9.00;5.47;;;;;;;20.44;43.27;101430.03;4977543;28;20026;-92
2023/06/17 08:12:04;;;;;;;11.63;6.00;;;;;;;20.52;43.92;101428.69;4993359;28;20096;-90
2023/06/17 08:14:29;;;;;;;7.65;6.00;;;;;;;20.56;42.02;101416.03;4993063;28;20042;-89
2023/06/17 08:16:55;;;;;;;11.30;5.07;;;;;;;20.70;40.26;101421.94;4977341;28;20038;-96
2023/06/17 08:19:21;;;;;;;6.97;5.10;;;;;;;20.82;41.75;101419.75;4961783;28;20026;-91
2023/06/17 08:21:46;;;;;;;8.60;5.07;;;;;;;20.96;41.55;101425.59;4994563;28;20038;-92
2023/06/17 08:24:20;;;;;;;7.13;4.80;;;;;;;21.06;41.78;101421.22;4976804;28;20483;-93
2023/06/17 08:26:46;;;;;;;7.93;4.85;;;;;;;21.17;39.99;101420.13;4993181;28;20069;-95
2023/06/17 08:29:13;;;;;;;6.90;4.70;;;;;;;21.21;39.71;101410.19;4993391;28;20065;-92
2023/06/17 08:31:40;;;;;;;5.68;4.95;;;;;;;21.38;40.14;101413.53;4961153;28;20066;-91
2023/06/17 08:34:05;;;;;;;7.35;4.65;;;;;;;21.49;41.27;101408.03;4993890;28;20045;-93
2023/06/17 08:36:31;;;;;;;5.57;4.57;;;;;;;21.62;39.78;101407.50;4977042;28;20035;-94
2023/06/17 08:38:56;;;;;;;9.85;4.90;;;;;;;21.88;40.41;101407.50;4994136;28;20023;-88
2023/06/17 08:41:22;;;;;;;10.57;5.03;;;;;;;22.04;38.72;101398.09;4993379;28;20127;-88
2023/06/17 08:43:51;;;;;;;8.23;5.50;;;;;;;22.20;39.27;101406.31;4992728;28;20031;-92
2023/06/17 08:46:23;;;;;;;10.20;5.75;;;;;;;22.30;38.71;101408.25;4993868;28;20034;-92
2023/06/17 08:48:50;;;;;;;6.80;5.28;;;;;;;22.43;39.67;101416.78;4993082;28;20031;-92
2023/06/17 08:51:16;;;;;;;12.75;5.25;;;;;;;22.54;38.41;101403.78;4961207;28;20039;-93
2023/06/17 08:53:44;;;;;;;11.10;5.53;;;;;;;22.68;38.01;101406.75;4977808;28;20038;-91
2023/06/17 08:56:11;;;;;;;7.40;4.88;;;;;;;22.75;37.36;101409.19;4993509;28;20065;-96
2023/06/17 08:58:37;;;;;;;12.35;4.80;;;;;;;22.78;36.61;101416.94;4977361;28;20471;-92
2023/06/17 09:01:04;;;;;;;8.53;4.77;;;;;;;22.82;36.44;101406.94;4994051;28;20045;-94
2023/06/17 09:03:36;;;;;;;9.07;4.90;;;;;;;22.82;36.83;101397.81;4992843;28;20243;-89
2023/06/17 09:06:02;;;;;;;13.73;5.43;;;;;;;22.84;35.56;101409.41;4993125;28;20027;-86
2023/06/17 09:08:29;;;;;;;7.50;5.00;;;;;;;22.87;36.89;101406.06;4980290;28;20081;-89
2023/06/17 09:11:04;;;;;;;8.87;5.50;;;;;;;22.85;36.67;101402.78;4980571;28;20034;-90
2023/06/17 09:13:29;;;;;;;7.90;4.55;;;;;;;22.92;37.91;101406.88;4996585;28;20061;-90
2023/06/17 09:15:55;;;;;;;7.67;4.43;;;;;;;23.04;38.06;101398.22;4997808;28;20064;-89
2023/06/17 09:18:20;;;;;;;8.32;5.22;;;;;;;23.15;36.74;101393.50;4996886;28;20133;-90
2023/06/17 09:20:51;;;;;;;6.10;4.40;;;;;;;23.25;36.81;101396.22;4996097;28;20034;-91
2023/06/17 09:23:20;;;;;;;6.07;4.30;;;;;;;23.30;36.38;101396.16;4997997;28;20050;-89
2023/06/17 09:25:45;;;;;;;4.32;3.80;;;;;;;23.41;36.01;101401.63;4995816;28;20445;-90
2023/06/17 09:28:10;;;;;;;7.07;4.00;;;;;;;23.46;35.97;101402.41;4996080;28;20121;-90
2023/06/17 09:30:42;;;;;;;5.13;4.30;;;;;;;23.49;35.37;101395.47;4997385;28;20356;-90
2023/06/17 09:33:25;;;;;;;6.60;4.57;;;;;;;23.71;36.01;101405.22;4996360;28;20108;-91
2023/06/17 09:36:09;;;;;;;6.13;4.00;;;;;;;23.84;36.31;101407.31;4996131;28;20079;-90
2023/06/17 09:38:38;;;;;;;6.28;4.28;;;;;;;23.93;34.66;101399.25;4995814;28;20032;-91
2023/06/17 09:41:13;;;;;;;8.90;4.40;;;;;;;24.13;35.21;101410.13;4997538;28;20038;-90
2023/06/17 09:43:40;;;;;;;10.23;4.05;;;;;;;24.17;34.82;101404.81;4995994;28;20061;-90
2023/06/17 09:46:06;;;;;;;6.85;4.10;;;;;;;24.29;34.87;101407.19;4963838;28;20125;-90
2023/06/17 09:48:37;;;;;;;8.65;4.70;;;;;;;24.30;34.21;101401.34;4995925;28;20034;-90
2023/06/17 09:51:09;;;;;;;6.22;4.30;;;;;;;24.41;34.31;101390.94;4997000;28;20074;-90
2023/06/17 09:53:35;;;;;;;5.40;4.37;;;;;;;24.59;33.73;101394.91;4996082;28;20403;-90
2023/06/17 09:56:02;;;;;;;7.30;4.60;;;;;;;24.75;34.18;101389.19;4995383;28;20030;-89
2023/06/17 09:58:29;;;;;;;6.63;4.38;;;;;;;24.80;33.50;101389.94;4997024;28;20033;-90
2023/06/17 10:01:05;;;;;;;6.43;4.20;;;;;;;24.93;33.70;101393.06;4995459;28;20023;-89
2023/06/17 10:03:36;;;;;;;5.32;4.20;;;;;;;25.10;33.96;101387.84;4996947;28;20038;-90
2023/06/17 10:06:11;;;;;;;5.90;4.23;;;;;;;25.47;33.98;101399.22;4996058;28;20068;-90
2023/06/17 10:08:42;;;;;;;7.18;4.07;;;;;;;25.62;33.58;101381.47;4996353;28;20027;-89
2023/06/17 10:11:09;;;;;;;8.75;4.32;;;;;;;25.72;32.71;101376.56;4996065;28;20037;-90
2023/06/17 10:13:38;;;;;;;8.13;4.15;;;;;;;25.86;32.42;101381.31;4997078;28;20077;-90
2023/06/17 10:16:09;;;;;;;6.70;4.30;;;;;;;26.05;32.96;101387.63;4979425;28;20034;-90
2023/06/17 10:18:39;;;;;;;7.73;4.50;;;;;;;26.02;32.99;101377.13;4994849;28;20467;-90
2023/06/17 10:21:08;;;;;;;8.25;4.70;;;;;;;26.20;31.98;101382.91;4979430;28;20071;-90
2023/06/17 10:23:38;;;;;;;4.78;4.07;;;;;;;26.27;32.27;101375.00;4994927;28;20046;-89
2023/06/17 10:26:07;;;;;;;9.50;4.45;;;;;;;26.34;31.14;101391.25;4995405;28;20527;-86
2023/06/17 10:28:44;;;;;;;4.65;4.20;;;;;;;26.45;31.37;101370.44;4994950;28;20037;-88
2023/06/17 10:35:10;;;;;;;5.45;4.03;;;;;;;26.67;31.34;101377.22;4936490;29;20222;-87
2023/06/17 10:37:44;;;;;;;6.22;3.70;;;;;;;27.03;30.51;101377.28;4960059;28;20042;-87
2023/06/17 10:40:18;;;;;;;7.32;3.95;;;;;;;27.48;30.20;101370.91;4996133;28;20081;-87
2023/06/17 10:43:04;;;;;;;9.55;4.20;;;;;;;27.81;30.81;101374.22;4994704;28;20034;-87
2023/06/17 10:45:54;;;;;;;6.63;4.33;;;;;;;28.05;29.45;101372.22;4980648;28;20038;-87
2023/06/17 10:48:22;;;;;;;8.73;4.40;;;;;;;28.48;28.84;101365.94;4994768;28;20045;-86
2023/06/17 10:51:02;;;;;;;7.88;3.97;;;;;;;28.88;29.61;101366.69;4995917;28;20037;-92
2023/06/17 10:53:35;;;;;;;4.78;4.22;;;;;;;29.27;27.95;101371.66;4996548;28;20122;-87
2023/06/17 10:56:02;;;;;;;5.28;3.88;;;;;;;29.49;26.64;101374.22;4978520;28;20097;-87
2023/06/17 10:58:31;;;;;;;5.47;4.27;;;;;;;29.96;26.56;101364.28;4994709;28;20038;-86
2023/06/17 11:01:01;;;;;;;4.60;3.88;;;;;;;30.01;26.01;101362.09;4995644;28;20109;-86
2023/06/17 11:03:30;;;;;;;4.40;3.97;;;;;;;30.20;26.67;101363.66;4977932;28;20023;-87
2023/06/17 11:06:00;;;;;;;8.55;4.50;;;;;;;30.19;25.68;101357.25;4994496;28;20041;-86
2023/06/17 11:08:26;;;;;;;9.73;4.20;;;;;;;30.39;25.43;101354.81;4978382;28;20034;-87
2023/06/17 11:10:51;;;;;;;6.17;4.20;;;;;;;30.56;25.88;101351.09;4994352;28;20031;-87
2023/06/17 11:13:23;;;;;;;5.18;4.32;;;;;;;30.76;25.59;101341.91;4978736;28;20038;-86
2023/06/17 11:15:54;;;;;;;5.47;4.10;;;;;;;30.84;24.88;101336.56;4978190;28;20030;-87
2023/06/17 11:18:20;;;;;;;4.95;3.92;;;;;;;31.23;25.18;101337.25;4978422;28;20026;-86
2023/06/17 11:20:46;;;;;;;6.55;4.22;;;;;;;32.03;23.78;101341.63;4977692;28;20513;-87
2023/06/17 11:23:11;;;;;;;7.30;4.30;;;;;;;34.12;21.69;101336.38;4994228;28;20050;-86